createdAt,value
2018-03-14T00:01:46.053Z,78.33
2018-03-14T00:04:19.797Z,74.10
2018-03-14T00:06:53.495Z,76.47
2018-03-14T00:09:27.149Z,62.57
2018-03-14T00:12:00.717Z,60.77
2018-03-14T00:14:34.237Z,55.93
2018-03-14T00:17:07.818Z,56.60
2018-03-14T00:19:41.465Z,66.90
2018-03-14T00:22:26.979Z,55.03
2018-03-14T00:25:00.754Z,59.27
2018-03-14T00:27:34.429Z,73.53
2018-03-14T00:30:08.221Z,58.23
2018-03-14T00:32:41.978Z,53.27
2018-03-14T00:35:15.608Z,63.23
2018-03-14T00:37:49.219Z,66.03
2018-03-14T00:40:22.855Z,74.03
2018-03-14T00:42:56.409Z,69.10
2018-03-14T00:45:30.070Z,79.50
2018-03-14T00:48:04.013Z,77.07
2018-03-14T00:50:37.693Z,58.87
2018-03-14T00:53:11.229Z,58.00
2018-03-14T00:55:44.726Z,59.23
2018-03-14T00:58:18.423Z,61.80
2018-03-14T01:00:52.006Z,56.40
2018-03-14T01:03:25.612Z,60.57
2018-03-14T01:05:59.399Z,67.93
2018-03-14T01:08:33.066Z,64.37
2018-03-14T01:11:06.710Z,65.03
2018-03-14T01:13:40.375Z,65.37
2018-03-14T01:16:14.025Z,64.17
2018-03-14T01:18:47.677Z,71.97
2018-03-14T01:21:21.321Z,60.40
2018-03-14T01:23:55.059Z,73.83
2018-03-14T01:26:28.605Z,69.20
2018-03-14T01:29:02.196Z,65.83
2018-03-14T01:31:35.712Z,76.67
2018-03-14T01:34:09.443Z,71.87
2018-03-14T01:36:43.041Z,73.20
2018-03-14T01:39:16.836Z,58.87
2018-03-14T01:41:50.508Z,68.07
2018-03-14T01:44:24.119Z,83.40
2018-03-14T01:46:57.712Z,77.67
2018-03-14T01:49:31.349Z,72.13
2018-03-14T01:52:04.973Z,79.70
2018-03-14T01:54:38.546Z,77.83
2018-03-14T01:57:12.275Z,70.57
2018-03-14T01:59:45.973Z,83.40
2018-03-14T02:02:19.602Z,85.20
2018-03-14T02:04:53.634Z,83.17
2018-03-14T02:07:27.349Z,82.00
2018-03-14T02:10:01.403Z,84.20
2018-03-14T02:12:35.311Z,86.97
2018-03-14T02:15:08.928Z,86.37
2018-03-14T02:17:42.566Z,75.43
2018-03-14T02:20:16.186Z,89.60
2018-03-14T02:22:49.881Z,79.10
2018-03-14T02:25:23.481Z,78.13
2018-03-14T02:27:57.066Z,91.20
2018-03-14T02:30:30.702Z,78.20
2018-03-14T02:33:04.310Z,73.43
2018-03-14T02:35:38.027Z,79.23
2018-03-14T02:38:11.577Z,93.87
2018-03-14T02:40:45.212Z,76.13
2018-03-14T02:43:18.821Z,76.83
2018-03-14T02:45:52.482Z,78.73
2018-03-14T02:48:26.038Z,77.07
2018-03-14T02:50:59.734Z,70.77
2018-03-14T02:53:33.293Z,80.00
2018-03-14T02:56:06.917Z,68.17
2018-03-14T02:58:40.631Z,63.97
2018-03-14T03:01:14.309Z,68.03
2018-03-14T03:03:47.990Z,72.33
2018-03-14T03:06:21.657Z,76.47
2018-03-14T03:08:55.330Z,75.07
2018-03-14T03:11:28.944Z,82.87
2018-03-14T03:14:02.658Z,77.93
2018-03-14T03:16:36.325Z,77.97
2018-03-14T03:19:09.985Z,80.47
2018-03-14T03:21:43.550Z,81.50
2018-03-14T03:24:17.068Z,85.57
2018-03-14T03:26:50.753Z,84.17
2018-03-14T03:29:24.281Z,82.10
2018-03-14T03:31:57.966Z,81.53
2018-03-14T03:34:31.523Z,71.20
2018-03-14T03:37:05.058Z,79.70
2018-03-14T03:39:38.781Z,87.27
2018-03-14T03:42:12.441Z,97.80
2018-03-14T03:44:45.969Z,95.57
2018-03-14T03:47:19.573Z,95.40
2018-03-14T03:49:53.105Z,93.20
2018-03-14T03:52:26.680Z,93.40
2018-03-14T03:55:00.474Z,79.83
2018-03-14T03:57:34.178Z,87.97
2018-03-14T04:00:08.027Z,83.67
2018-03-14T04:02:41.638Z,83.63
2018-03-14T04:05:15.426Z,91.90
2018-03-14T04:07:49.027Z,93.20
2018-03-14T04:10:22.664Z,104.83
2018-03-14T04:12:56.239Z,96.83
2018-03-14T04:15:29.902Z,95.73
2018-03-14T04:18:03.522Z,119.93
2018-03-14T04:20:37.165Z,126.73
2018-03-14T04:23:10.921Z,107.97
2018-03-14T04:25:44.517Z,94.63
2018-03-14T04:28:18.192Z,93.37
2018-03-14T04:30:51.814Z,89.90
2018-03-14T04:33:25.390Z,98.70
2018-03-14T04:35:59.050Z,92.03
2018-03-14T04:38:32.709Z,105.57
2018-03-14T04:41:06.285Z,99.10
2018-03-14T04:43:39.873Z,108.73
2018-03-14T04:46:13.530Z,112.50
2018-03-14T04:48:47.059Z,100.90
2018-03-14T04:51:20.742Z,102.40
2018-03-14T04:53:54.341Z,110.47
2018-03-14T04:56:28.174Z,129.37
2018-03-14T04:59:01.774Z,101.23
2018-03-14T05:01:35.338Z,97.50
2018-03-14T05:04:08.930Z,113.90
2018-03-14T05:06:42.578Z,127.30
2018-03-14T05:09:16.306Z,100.37
2018-03-14T05:11:49.938Z,83.90
2018-03-14T05:14:23.535Z,86.83
2018-03-14T05:16:57.138Z,92.23
2018-03-14T05:19:30.762Z,90.43
2018-03-14T05:22:04.310Z,97.37
2018-03-14T05:24:38.058Z,94.77
2018-03-14T05:27:11.798Z,81.83
2018-03-14T05:29:45.398Z,106.10
2018-03-14T05:32:18.966Z,111.80
2018-03-14T05:34:52.589Z,93.20
2018-03-14T05:37:26.225Z,87.30
2018-03-14T05:39:59.810Z,97.03
2018-03-14T05:42:33.742Z,95.10
2018-03-14T05:45:07.342Z,89.80
2018-03-14T05:47:41.029Z,104.23
2018-03-14T05:50:14.630Z,83.73
2018-03-14T05:52:48.294Z,89.37
2018-03-14T05:55:21.922Z,80.73
2018-03-14T05:57:55.658Z,96.20
2018-03-14T06:00:29.258Z,93.73
2018-03-14T06:03:02.813Z,151.67
2018-03-14T06:05:36.521Z,98.33
2018-03-14T06:08:10.118Z,92.07
2018-03-14T06:10:43.742Z,107.33
2018-03-14T06:13:17.360Z,90.67
2018-03-14T06:15:51.005Z,93.80
2018-03-14T06:18:24.534Z,99.37
2018-03-14T06:20:58.105Z,89.13
2018-03-14T06:23:31.638Z,94.17
2018-03-14T06:26:05.177Z,91.00
2018-03-14T06:28:38.829Z,100.53
2018-03-14T06:31:12.424Z,95.43
2018-03-14T06:33:46.061Z,90.70
2018-03-14T06:36:20.004Z,101.63
2018-03-14T06:38:53.630Z,100.47
2018-03-14T06:41:27.509Z,101.13
2018-03-14T06:44:01.190Z,107.50
2018-03-14T06:46:34.805Z,104.13
2018-03-14T06:49:08.453Z,109.00
2018-03-14T06:51:42.036Z,100.20
2018-03-14T06:54:15.667Z,94.80
2018-03-14T06:56:56.885Z,93.77
2018-03-14T06:59:42.265Z,96.47
2018-03-14T07:02:27.914Z,88.37
2018-03-14T07:05:13.521Z,86.63
2018-03-14T07:07:47.296Z,75.03
2018-03-14T07:10:21.099Z,80.83
2018-03-14T07:12:54.821Z,87.13
2018-03-14T07:15:28.443Z,86.80
2018-03-14T07:18:02.169Z,75.60
2018-03-14T07:20:35.825Z,67.03
2018-03-14T07:23:09.373Z,60.50
2018-03-14T07:25:43.018Z,45.40
2018-03-14T07:28:16.565Z,37.80
2018-03-14T07:30:50.176Z,32.43
2018-03-14T07:33:23.835Z,31.13
2018-03-14T07:35:58.321Z,29.53
2018-03-14T07:38:31.975Z,30.67
2018-03-14T07:41:05.765Z,24.13
2018-03-14T07:43:39.434Z,20.10
2018-03-14T07:46:12.974Z,18.53
2018-03-14T07:48:46.450Z,15.77
2018-03-14T07:51:20.131Z,8.73
2018-03-14T07:53:53.766Z,9.07
2018-03-14T07:56:27.313Z,7.77
2018-03-14T07:59:00.902Z,7.40
2018-03-14T08:01:34.682Z,5.30
2018-03-14T08:04:08.497Z,7.00
2018-03-14T08:06:42.144Z,6.10
2018-03-14T08:09:15.902Z,6.97
2018-03-14T08:11:49.562Z,6.13
2018-03-14T08:14:23.114Z,8.80
2018-03-14T08:16:56.670Z,7.30
2018-03-14T08:19:30.363Z,9.23
2018-03-14T08:22:03.910Z,8.80
2018-03-14T08:24:37.626Z,10.87
2018-03-14T08:27:11.374Z,9.07
2018-03-14T08:29:45.182Z,9.73
2018-03-14T08:32:18.834Z,11.37
2018-03-14T08:34:53.110Z,8.70
2018-03-14T08:37:26.793Z,12.40
2018-03-14T08:40:00.413Z,12.10
2018-03-14T08:42:34.199Z,9.07
2018-03-14T08:45:07.738Z,14.20
2018-03-14T08:47:41.285Z,95.47
2018-03-14T08:50:14.993Z,12.57
2018-03-14T08:52:48.686Z,13.27
2018-03-14T08:55:22.238Z,13.20
2018-03-14T08:57:55.982Z,12.63
2018-03-14T09:00:29.734Z,21.53
2018-03-14T09:03:03.426Z,135.80
2018-03-14T09:05:37.082Z,24.17
2018-03-14T09:08:10.890Z,21.37
2018-03-14T09:10:44.521Z,14.70
2018-03-14T09:13:18.269Z,14.63
2018-03-14T09:15:51.930Z,13.13
2018-03-14T09:18:25.684Z,11.83
2018-03-14T09:20:59.291Z,11.93
2018-03-14T09:23:32.902Z,10.80
2018-03-14T09:26:06.571Z,13.27
2018-03-14T09:28:40.255Z,11.23
2018-03-14T09:31:13.826Z,10.90
2018-03-14T09:33:47.379Z,10.80
2018-03-14T09:36:20.950Z,11.20
2018-03-14T09:38:54.677Z,12.27
2018-03-14T09:41:28.556Z,12.70
2018-03-14T09:44:02.105Z,11.37
2018-03-14T09:46:35.790Z,12.77
2018-03-14T09:49:09.348Z,14.63
2018-03-14T09:51:42.891Z,12.17
2018-03-14T09:54:16.609Z,16.30
2018-03-14T09:56:50.170Z,14.60
2018-03-14T09:59:23.730Z,14.47
2018-03-14T10:01:57.289Z,14.20
2018-03-14T10:04:30.958Z,13.27
2018-03-14T10:07:04.609Z,13.57
2018-03-14T10:09:38.314Z,13.33
2018-03-14T10:12:11.880Z,16.47
2018-03-14T10:14:45.414Z,14.87
2018-03-14T10:17:18.974Z,13.17
2018-03-14T10:19:52.506Z,13.23
2018-03-14T10:22:26.048Z,16.37
2018-03-14T10:24:59.637Z,17.97
2018-03-14T10:27:33.405Z,15.67
2018-03-14T10:30:07.130Z,15.07
2018-03-14T10:32:40.714Z,13.93
2018-03-14T10:35:14.375Z,15.10
2018-03-14T10:37:48.006Z,15.90
2018-03-14T10:40:21.586Z,15.93
2018-03-14T10:42:55.105Z,15.00
2018-03-14T10:45:28.690Z,13.97
2018-03-14T10:48:02.273Z,12.67
2018-03-14T10:50:35.805Z,14.77
2018-03-14T10:53:09.462Z,15.03
2018-03-14T10:55:43.148Z,15.97
2018-03-14T10:58:16.834Z,17.23
2018-03-14T11:00:55.980Z,19.93
2018-03-14T11:03:35.602Z,18.60
2018-03-14T11:06:09.269Z,15.70
2018-03-14T11:08:42.982Z,16.73
2018-03-14T11:11:16.553Z,19.40
2018-03-14T11:13:50.371Z,18.83
2018-03-14T11:16:23.974Z,16.47
2018-03-14T11:18:57.485Z,16.00
2018-03-14T11:21:31.173Z,15.87
2018-03-14T11:24:04.679Z,16.03
2018-03-14T11:26:38.238Z,17.07
2018-03-14T11:29:12.031Z,17.17
2018-03-14T11:31:45.561Z,14.23
2018-03-14T11:34:19.202Z,16.77
2018-03-14T11:36:52.927Z,13.20
2018-03-14T11:39:26.688Z,13.87
2018-03-14T11:42:00.345Z,15.13
2018-03-14T11:44:33.993Z,15.07
2018-03-14T11:47:07.546Z,16.37
2018-03-14T11:49:41.341Z,16.03
2018-03-14T11:52:15.086Z,17.07
2018-03-14T11:54:48.678Z,20.10
2018-03-14T11:57:22.252Z,16.93
2018-03-14T11:59:55.777Z,16.40
2018-03-14T12:02:29.561Z,16.23
2018-03-14T12:05:03.334Z,14.27
2018-03-14T12:07:37.079Z,15.67
2018-03-14T12:10:10.650Z,14.10
2018-03-14T12:12:44.243Z,15.30
2018-03-14T12:15:17.835Z,13.97
2018-03-14T12:17:51.476Z,16.50
2018-03-14T12:20:25.039Z,15.77
2018-03-14T12:22:58.685Z,14.53
2018-03-14T12:25:32.318Z,13.23
2018-03-14T12:28:05.956Z,13.67
2018-03-14T12:30:39.439Z,14.17
2018-03-14T12:33:13.089Z,16.10
2018-03-14T12:35:46.629Z,15.07
2018-03-14T12:38:20.426Z,13.53
2018-03-14T12:40:54.098Z,12.50
2018-03-14T12:43:27.662Z,14.13
2018-03-14T12:46:01.289Z,12.37
2018-03-14T12:48:34.905Z,14.20
2018-03-14T12:51:08.463Z,12.23
2018-03-14T12:53:42.141Z,12.57
2018-03-14T12:56:15.848Z,13.30
2018-03-14T12:58:49.634Z,12.87
2018-03-14T13:01:23.194Z,12.60
2018-03-14T13:03:56.867Z,13.13
2018-03-14T13:06:30.714Z,15.23
2018-03-14T13:09:04.341Z,10.67
2018-03-14T13:11:37.936Z,10.43
2018-03-14T13:14:11.479Z,12.70
2018-03-14T13:16:45.089Z,13.20
2018-03-14T13:19:18.781Z,16.80
2018-03-14T13:21:52.553Z,12.63
2018-03-14T13:24:26.193Z,12.67
2018-03-14T13:27:00.078Z,13.20
2018-03-14T13:29:33.734Z,13.13
2018-03-14T13:32:07.260Z,11.23
2018-03-14T13:34:40.973Z,10.13
2018-03-14T13:37:14.500Z,11.50
2018-03-14T13:39:48.042Z,11.67
2018-03-14T13:42:21.537Z,9.67
2018-03-14T13:44:55.057Z,11.53
2018-03-14T13:47:28.651Z,12.97
2018-03-14T13:50:02.130Z,9.37
2018-03-14T13:52:35.950Z,12.43
2018-03-14T13:55:09.569Z,10.87
2018-03-14T13:57:43.331Z,11.13
2018-03-14T14:00:17.029Z,11.60
2018-03-14T14:02:50.571Z,11.30
2018-03-14T14:05:24.254Z,12.23
2018-03-14T14:07:57.805Z,8.17
2018-03-14T14:10:31.358Z,9.87
2018-03-14T14:13:05.092Z,10.57
2018-03-14T14:15:38.645Z,8.87
2018-03-14T14:18:12.366Z,7.90
2018-03-14T14:20:46.110Z,8.73
2018-03-14T14:23:19.743Z,9.27
2018-03-14T14:25:53.226Z,8.43
2018-03-14T14:28:26.954Z,9.17
2018-03-14T14:31:00.771Z,8.87
2018-03-14T14:33:34.406Z,7.57
2018-03-14T14:36:08.062Z,12.97
2018-03-14T14:38:41.609Z,7.47
2018-03-14T14:41:15.246Z,6.43
2018-03-14T14:43:48.784Z,7.83
2018-03-14T14:46:22.542Z,7.10
2018-03-14T14:48:56.168Z,9.30
2018-03-14T14:51:29.717Z,8.47
2018-03-14T14:54:03.358Z,8.83
2018-03-14T14:56:37.126Z,8.63
2018-03-14T14:59:10.825Z,8.10
2018-03-14T15:01:44.391Z,8.90
2018-03-14T15:04:18.229Z,9.03
2018-03-14T15:06:51.910Z,7.87
2018-03-14T15:09:25.703Z,8.07
2018-03-14T15:11:59.194Z,8.17
2018-03-14T15:14:32.950Z,10.63
2018-03-14T15:17:06.558Z,8.47
2018-03-14T15:19:40.319Z,7.87
2018-03-14T15:22:13.849Z,10.33
2018-03-14T15:24:47.503Z,11.20
2018-03-14T15:27:21.036Z,10.57
2018-03-14T15:29:54.554Z,9.97
2018-03-14T15:32:28.197Z,7.03
2018-03-14T15:35:01.814Z,9.50
2018-03-14T15:37:35.562Z,8.93
2018-03-14T15:40:09.086Z,9.50
2018-03-14T15:42:42.625Z,9.10
2018-03-14T15:45:16.246Z,7.90
2018-03-14T15:47:49.874Z,9.00
2018-03-14T15:50:23.582Z,11.77
2018-03-14T15:52:57.366Z,7.33
2018-03-14T15:55:31.017Z,7.73
2018-03-14T15:58:04.663Z,7.90
2018-03-14T16:00:38.362Z,9.00
2018-03-14T16:03:11.930Z,10.83
2018-03-14T16:05:45.606Z,8.13
2018-03-14T16:08:19.330Z,9.83
2018-03-14T16:10:53.297Z,9.47
2018-03-14T16:13:26.873Z,8.40
2018-03-14T16:16:00.701Z,8.00
2018-03-14T16:18:34.240Z,8.57
2018-03-14T16:21:07.886Z,9.20
2018-03-14T16:23:41.480Z,9.63
2018-03-14T16:26:15.120Z,9.27
2018-03-14T16:28:48.787Z,6.47
2018-03-14T16:31:22.547Z,8.40
2018-03-14T16:33:56.225Z,7.07
2018-03-14T16:36:29.946Z,7.10
2018-03-14T16:39:03.547Z,8.33
2018-03-14T16:41:37.090Z,7.67
2018-03-14T16:44:10.702Z,5.97
2018-03-14T16:46:44.453Z,7.60
2018-03-14T16:49:18.172Z,8.70
2018-03-14T16:51:52.005Z,5.13
2018-03-14T16:54:25.529Z,8.23
2018-03-14T16:56:59.326Z,7.37
2018-03-14T16:59:32.942Z,6.43
2018-03-14T17:02:06.678Z,6.17
2018-03-14T17:04:40.230Z,5.10
2018-03-14T17:07:13.861Z,6.47
2018-03-14T17:09:47.358Z,7.53
2018-03-14T17:12:21.027Z,10.57
2018-03-14T17:14:54.677Z,7.83
2018-03-14T17:17:28.457Z,8.67
2018-03-14T17:20:02.111Z,9.27
2018-03-14T17:22:35.726Z,9.17
2018-03-14T17:25:09.234Z,8.03
2018-03-14T17:27:42.785Z,8.60
2018-03-14T17:30:16.393Z,7.93
2018-03-14T17:32:50.055Z,10.17
2018-03-14T17:35:23.550Z,6.50
2018-03-14T17:37:57.234Z,6.90
2018-03-14T17:40:30.861Z,5.30
2018-03-14T17:43:04.409Z,8.23
2018-03-14T17:45:37.857Z,6.90
2018-03-14T17:48:11.457Z,5.97
2018-03-14T17:50:44.973Z,5.20
2018-03-14T17:53:18.739Z,6.70
2018-03-14T17:55:52.359Z,7.73
2018-03-14T17:58:25.939Z,6.67
2018-03-14T18:00:59.455Z,8.70
2018-03-14T18:03:33.080Z,8.03
2018-03-14T18:06:06.801Z,7.23
2018-03-14T18:08:40.446Z,10.50
2018-03-14T18:11:13.970Z,6.57
2018-03-14T18:13:47.522Z,8.87
2018-03-14T18:16:21.094Z,10.60
2018-03-14T18:18:54.771Z,11.27
2018-03-14T18:21:28.368Z,14.47
2018-03-14T18:24:01.878Z,9.97
2018-03-14T18:26:35.439Z,7.53
2018-03-14T18:29:09.019Z,8.33
2018-03-14T18:31:43.305Z,8.33
2018-03-14T18:34:16.834Z,7.77
2018-03-14T18:36:50.466Z,10.33
2018-03-14T18:39:24.096Z,9.60
2018-03-14T18:41:57.702Z,7.97
2018-03-14T18:44:31.270Z,9.33
2018-03-14T18:47:04.911Z,10.17
2018-03-14T18:49:38.591Z,102.07
2018-03-14T18:52:12.053Z,10.87
2018-03-14T18:54:45.644Z,10.00
2018-03-14T18:57:19.270Z,10.53
2018-03-14T18:59:52.830Z,9.37
2018-03-14T19:02:26.806Z,10.37
2018-03-14T19:05:00.474Z,8.73
2018-03-14T19:07:34.169Z,11.60
2018-03-14T19:10:07.716Z,11.37
2018-03-14T19:12:41.333Z,11.80
2018-03-14T19:15:14.945Z,11.17
2018-03-14T19:17:48.558Z,12.07
2018-03-14T19:20:22.081Z,13.37
2018-03-14T19:22:55.727Z,10.13
2018-03-14T19:25:29.592Z,10.50
2018-03-14T19:28:03.379Z,9.60
2018-03-14T19:30:37.003Z,12.20
2018-03-14T19:33:10.603Z,11.70
2018-03-14T19:35:44.475Z,9.77
2018-03-14T19:38:18.236Z,15.10
2018-03-14T19:40:52.138Z,11.97
2018-03-14T19:43:25.874Z,14.27
2018-03-14T19:45:59.473Z,13.13
2018-03-14T19:48:33.150Z,10.63
2018-03-14T19:51:06.944Z,11.87
2018-03-14T19:53:40.619Z,15.20
2018-03-14T19:56:14.296Z,12.83
2018-03-14T19:58:47.963Z,12.77
2018-03-14T20:01:21.612Z,10.83
2018-03-14T20:03:55.229Z,12.13
2018-03-14T20:06:28.994Z,13.10
2018-03-14T20:09:02.645Z,14.00
2018-03-14T20:11:36.243Z,12.47
2018-03-14T20:14:09.858Z,13.73
2018-03-14T20:16:43.513Z,14.47
2018-03-14T20:19:17.072Z,12.70
2018-03-14T20:21:50.994Z,13.80
2018-03-14T20:24:24.611Z,16.70
2018-03-14T20:26:58.338Z,12.17
2018-03-14T20:29:32.000Z,13.77
2018-03-14T20:32:05.625Z,17.70
2018-03-14T20:34:39.175Z,11.57
2018-03-14T20:37:12.737Z,14.37
2018-03-14T20:39:46.426Z,15.03
2018-03-14T20:42:19.998Z,17.93
2018-03-14T20:44:53.786Z,16.20
2018-03-14T20:47:27.470Z,14.47
2018-03-14T20:50:01.083Z,13.53
2018-03-14T20:52:34.766Z,15.40
2018-03-14T20:55:08.285Z,15.70
2018-03-14T20:57:41.959Z,14.00
2018-03-14T21:00:15.482Z,14.53
2018-03-14T21:02:49.122Z,17.87
2018-03-14T21:05:22.930Z,15.07
2018-03-14T21:07:56.699Z,15.93
2018-03-14T21:10:30.267Z,16.37
2018-03-14T21:13:04.034Z,18.30
2018-03-14T21:15:37.695Z,21.20
2018-03-14T21:18:11.309Z,16.97
2018-03-14T21:20:45.079Z,19.90
2018-03-14T21:23:18.654Z,18.93
2018-03-14T21:25:52.416Z,18.00
2018-03-14T21:28:25.996Z,18.57
2018-03-14T21:30:59.750Z,18.70
2018-03-14T21:33:33.360Z,17.40
2018-03-14T21:36:07.195Z,19.03
2018-03-14T21:38:41.104Z,20.00
2018-03-14T21:41:14.651Z,19.60
2018-03-14T21:43:48.222Z,18.13
2018-03-14T21:46:21.902Z,20.53
2018-03-14T21:48:55.474Z,20.50
2018-03-14T21:51:29.066Z,22.27
2018-03-14T21:54:02.642Z,21.63
2018-03-14T21:56:36.161Z,21.23
2018-03-14T21:59:09.710Z,24.07
2018-03-14T22:01:43.379Z,21.97
2018-03-14T22:04:16.991Z,24.30
2018-03-14T22:06:50.734Z,24.00
2018-03-14T22:09:24.376Z,22.87
2018-03-14T22:11:58.004Z,23.47
2018-03-14T22:14:31.492Z,22.70
2018-03-14T22:17:05.090Z,22.67
2018-03-14T22:19:38.598Z,23.03
2018-03-14T22:22:12.200Z,22.97
2018-03-14T22:24:45.830Z,21.37
2018-03-14T22:27:19.425Z,23.23
2018-03-14T22:29:53.034Z,24.47
2018-03-14T22:32:26.705Z,24.97
2018-03-14T22:35:00.331Z,24.90
2018-03-14T22:37:34.034Z,22.83
2018-03-14T22:40:07.641Z,26.20
2018-03-14T22:42:41.273Z,25.47
2018-03-14T22:45:14.835Z,23.63
2018-03-14T22:47:48.518Z,27.17
2018-03-14T22:50:22.051Z,26.40
2018-03-14T22:52:55.694Z,24.13
2018-03-14T22:55:29.382Z,24.27
2018-03-14T22:58:02.962Z,24.67
2018-03-14T23:00:36.622Z,24.83
2018-03-14T23:03:10.182Z,25.07
2018-03-14T23:05:43.881Z,18.97
2018-03-14T23:08:17.559Z,27.43
2018-03-14T23:10:51.161Z,20.90
2018-03-14T23:13:24.717Z,28.00
2018-03-14T23:15:58.382Z,22.40
2018-03-14T23:18:31.962Z,23.17
2018-03-14T23:21:05.611Z,20.77
2018-03-14T23:23:39.142Z,23.33
2018-03-14T23:26:12.766Z,22.33
2018-03-14T23:28:46.413Z,21.30
2018-03-14T23:31:20.087Z,22.73
2018-03-14T23:33:53.552Z,19.30
2018-03-14T23:36:27.178Z,26.87
2018-03-14T23:39:00.814Z,28.90
2018-03-14T23:41:34.389Z,20.53
2018-03-14T23:44:08.018Z,23.60
2018-03-14T23:46:41.712Z,19.70
2018-03-14T23:49:15.301Z,24.30
2018-03-14T23:51:48.977Z,23.00
2018-03-14T23:54:22.637Z,20.87
2018-03-14T23:56:56.302Z,22.03
2018-03-14T23:59:30.053Z,23.60
